Weather reports worldwide

Advertisment
Rodkallen, Sweden (2188): temperature & dewpoint: 12.01.2018 14:00:00 - 18.01.2018 14:00:00 (CET)Rodkallen, Sweden (2188): wind speed & gusts: 12.01.2018 14:00:00 - 18.01.2018 14:00:00 (CET)Rodkallen, Sweden (2188): wind direction: 12.01.2018 14:00:00 - 18.01.2018 14:00:00 (CET)Rodkallen, Sweden (2188): visibility: 12.01.2018 14:00:00 - 18.01.2018 14:00:00 (CET)Rodkallen, Sweden (2188): precipitation: 12.01.2018 14:00:00 - 18.01.2018 14:00:00 (CET)
Date & Time tt [°C] td [°C] ff [km/h] ff [kn] fx [km/h] fx [kn] dd vv [km] rr [mm]
18.01.2018 14:00:00 -3,9 -6,2 25 13 34 18 ESE 5 0,0
18.01.2018 13:00:00 -4,0 -6,0 26 14 34 18 E 3,0 0,0
18.01.2018 12:00:00 -4,0 -6,3 26 14 32 17 ESE 3,4 0,0
18.01.2018 11:00:00 -4,2 -7,0 23 12 32 18 E 7 0,0
18.01.2018 10:00:00 -4,4 -7,8 23 12 33 18 ESE 19 0,0
18.01.2018 09:00:00 -4,8 -7,2 27 15 36 19 E 3,5 0,0
18.01.2018 08:00:00 -5,2 -7,5 27 15 37 20 E 3,3 0,0
18.01.2018 07:00:00 -5,4 -8,0 27 14 40 22 E 6 0,0
18.01.2018 06:00:00 -5,7 -8,3 27 14 40 22 ENE 4,7 0,0
18.01.2018 05:00:00 -6,0 -9,2 26 14 38 20 E 8 0,0
18.01.2018 04:00:00 -6,0 -9,5 26 14 37 20 E 6 0,0
18.01.2018 03:00:00 -6,2 -10,2 22 12 35 19 E 8 0,0
18.01.2018 02:00:00 -6,4 -11,1 21 12 37 20 E 16 0,0
18.01.2018 01:00:00 -6,2 -11,0 27 15 37 20 E 32 0,0
18.01.2018 00:00:00 -6,0 -10,8 26 14 38 20 ESE 9 0,0
17.01.2018 23:00:00 -6,0 -9,5 22 12 39 21 ESE 6 0,0
17.01.2018 22:00:00 -5,8 -9,3 32 17 39 21 SE 7 0,0
17.01.2018 21:00:00 -5,9 -8,6 29 16 38 20 ESE 5 0,0
17.01.2018 20:00:00 -6,0 -8,6 29 16 40 22 ESE 2,9 0,0
17.01.2018 19:00:00 -6,1 -9,8 26 14 50 27 ESE 2,4 0,0
17.01.2018 18:00:00 -5,7 -9,3 36 19 50 27 ESE 7 0,0
17.01.2018 17:00:00 -5,6 -9,7 34 19 48 26 ESE 10 0,0
17.01.2018 16:00:00 -5,1 -9,2 36 19 48 26 ESE 32 0,0
17.01.2018 15:00:00 -5,2 -9,8 34 18 42 23 ESE 35 0,0
17.01.2018 14:00:00 -5,7 -9,4 29 16 43 23 SE 7 0,0
17.01.2018 13:00:00 -5,9 -9,3 30 16 50 27 SE 8 0,0
17.01.2018 12:00:00 -5,8 -9,0 35 19 50 27 SE 11 0,0
17.01.2018 11:00:00 -5,7 -8,7 36 19 50 27 SE 6 0,0
17.01.2018 10:00:00 -5,9 -8,8 39 21 54 29 SE 36 0,0
17.01.2018 09:00:00 -5,2 -8,1 40 22 54 29 SE 48 0,0
17.01.2018 08:00:00 -5,1 -8,2 33 18 45 24 ESE 50 0,0
17.01.2018 07:00:00 -5,0 -8,6 34 19 45 24 ESE 50 0,0
17.01.2018 06:00:00 -4,9 -8,3 30 16 44 24 ESE 50 0,0
17.01.2018 05:00:00 -4,4 -8,0 34 18 48 26 SE 50 0,0
17.01.2018 04:00:00 -4,2 -7,8 33 18 48 26 SE 50 0,0
17.01.2018 03:00:00 -4,1 -7,5 36 19 48 26 SE 50 0,0
17.01.2018 02:00:00 -4,0 -7,4 37 20 53 29 SE 36 0,0
17.01.2018 01:00:00 -3,5 -7,1 36 20 53 29 SE 50 0,0
17.01.2018 00:00:00 -3,8 -7,4 39 21 50 27 SE 50 0,0
16.01.2018 23:00:00 -3,6 -7,6 38 21 53 29 SE 43 0,0
16.01.2018 22:00:00 -3,6 -7,6 39 21 54 29 SSE 26 0,0
16.01.2018 21:00:00 -3,6 -7,7 43 23 54 29 SSE 31 0,0
16.01.2018 20:00:00 -3,7 -7,7 42 23 54 29 SSE 33 0,0
16.01.2018 19:00:00 -3,9 -7,5 40 22 54 29 SSE 30 0,0
16.01.2018 18:00:00 -4,1 -7,2 39 21 54 29 SE 32 0,0
16.01.2018 17:00:00 -4,3 -7,6 41 22 53 29 SSE 19 0,0
16.01.2018 16:00:00 -4,2 -7,5 42 23 51 28 SE 13 0,0
16.01.2018 15:00:00 -4,2 -7,5 38 21 56 31 SE 11 0,0
16.01.2018 14:00:00 -4,3 -7,2 44 24 64 34 SE 9 0,0
16.01.2018 13:00:00 -4,6 -7,7 47 25 64 34 SE 11 0,0
16.01.2018 12:00:00 -4,6 -7,4 48 26 66 36 SE 11 0,0
16.01.2018 11:00:00 -4,6 -7,4 52 28 68 37 SSE 12 0,0
16.01.2018 10:00:00 -4,5 -6,9 51 28 68 37 SSE 7 0,0
16.01.2018 09:00:00 -4,5 -6,6 53 29 68 37 SSE 4,8 0,0
16.01.2018 08:00:00 -4,3 -6,6 50 27 71 38 SE 7 0,0
16.01.2018 07:00:00 -4,4 -6,8 53 29 76 41 SE 8 0,0
16.01.2018 06:00:00 -4,2 -6,5 56 30 76 41 SE 11 0,0
16.01.2018 05:00:00 -4,2 -6,7 58 31 75 40 SE 11 0,0
16.01.2018 04:00:00 -3,9 -6,4 58 31 79 43 SSE 10 0,0
16.01.2018 03:00:00 -3,9 -6,4 61 33 80 43 SE 13 0,0
16.01.2018 02:00:00 -3,9 -6,2 62 34 81 44 SE 13 0,0
16.01.2018 01:00:00 -3,6 -5,9 62 33 81 44 SE 9 0,0
16.01.2018 00:00:00 -3,2 -5,4 61 33 81 44 SSE 7 0,0
15.01.2018 23:00:00 -2,7 -4,9 64 34 83 45 SSE 5 0,0
15.01.2018 22:00:00 -2,2 -4,5 65 35 83 45 SSE 6 0,0
15.01.2018 21:00:00 -2,2 -4,5 59 32 83 45 SSE 6 0,0
15.01.2018 20:00:00 -1,8 -4,1 59 32 76 41 SSE 7 0,0
15.01.2018 19:00:00 -1,8 -4,1 59 32 76 41 SSE 7 0,0
15.01.2018 18:00:00 -1,8 -4,0 59 32 77 41 SSE 7 0,0
15.01.2018 17:00:00 -1,9 -4,1 61 33 79 42 SSE 6 0,0
15.01.2018 16:00:00 -1,7 -3,9 61 33 79 42 SSE 8 0,0
15.01.2018 15:00:00 -1,7 -3,7 61 33 79 42 SSE 7 0,0
15.01.2018 14:00:00 -1,4 -3,3 57 31 77 42 SSE 6 0,0
15.01.2018 13:00:00 -1,3 -3,3 56 30 78 42 SSE 6 0,0
15.01.2018 12:00:00 -1,4 -3,4 61 33 81 44 SSE 6 0,0
15.01.2018 11:00:00 -1,2 -3,1 60 33 81 44 SSE 4,9 0,0
15.01.2018 10:00:00 -1,0 -3,0 62 33 79 43 SSE 6 0,0
15.01.2018 09:00:00 -0,7 -2,9 60 32 78 42 S 10 0,0
15.01.2018 08:00:00 -0,5 -2,7 59 32 85 46 S 14 0,0
15.01.2018 07:00:00 -0,4 -2,6 60 33 85 46 S 19 0,0
15.01.2018 06:00:00 0,3 -4,2 64 34 82 44 S 28 0,0
15.01.2018 05:00:00 0,4 -2,8 54 29 72 39 S 32 0,0
15.01.2018 04:00:00 0,2 -2,2 54 29 74 40 S 28 0,0
15.01.2018 03:00:00 0,2 -2,0 54 29 74 40 S 27 0,0
15.01.2018 02:00:00 0,0 -1,9 50 27 68 37 S 24 0,0
15.01.2018 01:00:00 0,1 -2,0 48 26 72 39 S 36 0,0
15.01.2018 00:00:00 0,2 -2,5 48 26 72 39 S 46 0,0
14.01.2018 23:00:00 0,0 -2,2 51 28 66 36 S 24 0,0
14.01.2018 22:00:00 -0,1 -2,2 42 23 71 39 S 31 0,0
14.01.2018 21:00:00 -0,2 -3,7 45 25 72 39 S 50 0,0
14.01.2018 20:00:00 -0,1 -3,8 53 28 72 39 S 19 0,0
14.01.2018 19:00:00 0,0 -2,7 46 25 61 33 S 34 0,0
14.01.2018 18:00:00 0,0 -2,5 45 24 61 33 S 35 0,0
14.01.2018 17:00:00 0,0 -3,2 46 25 56 31 S 50 0,0
14.01.2018 16:00:00 -0,6 -3,1 37 20 51 27 S 50 0,0
14.01.2018 15:00:00 -0,9 -3,3 34 19 46 25 S 50 0,0
14.01.2018 14:00:00 -1,2 -3,6 33 18 62 33 S 50 0,0
14.01.2018 13:00:00 -1,6 -4,3 36 20 66 36 SSW 50 0,0
14.01.2018 12:00:00 -1,9 -4,6 46 25 66 36 SSW 19 0,0
14.01.2018 11:00:00 -2,3 -4,6 42 23 64 34 SSW 50 0,0
14.01.2018 10:00:00 -2,7 -4,9 41 22 55 30 SSW 50 0,0
14.01.2018 09:00:00 -2,7 -4,7 39 21 53 29 S 50 0,0
14.01.2018 08:00:00 -2,7 -4,6 36 19 50 27 SSW 47 0,0
14.01.2018 07:00:00 -2,8 -4,7 34 19 50 27 SSW 50 0,0
14.01.2018 06:00:00 -2,3 -4,0 36 19 51 27 S 50 0,0
14.01.2018 05:00:00 -2,1 -3,8 36 19 51 27 S 50 0,0
14.01.2018 04:00:00 -1,9 -3,5 37 20 48 26 S 50 0,0
14.01.2018 03:00:00 -2,6 -3,7 23 13 35 19 SSW 50 0,0
14.01.2018 02:00:00 -3,3 -4,4 24 13 45 24 SSW 50 0,0
14.01.2018 01:00:00 -3,7 -4,7 27 15 51 27 SSW 50 0,0
14.01.2018 00:00:00 -4,6 -5,4 32 17 51 27 SSW 50 0,0
13.01.2018 23:00:00 -5,5 -6,3 41 22 51 28 SSW 25 0,0
13.01.2018 22:00:00 -5,2 -6,3 36 19 51 28 SSW 50 0,0
13.01.2018 21:00:00 -4,7 -5,9 34 18 46 25 SSW 50 0,0
13.01.2018 20:00:00 -4,8 -6,5 34 18 43 23 S 50 0,0
13.01.2018 19:00:00 -5,1 -7,4 32 18 42 23 S 50 0,0
13.01.2018 18:00:00 -5,0 -7,1 31 17 42 23 S 50 0,0
13.01.2018 17:00:00 -5,0 -7,1 31 17 40 21 S 50 0,0
13.01.2018 16:00:00 -5,1 -6,2 23 12 29 16 S 50 0,0
13.01.2018 15:00:00 -4,6 -5,4 21 11 24 13 S 50 0,0
13.01.2018 14:00:00 -4,4 -5,1 15 8 20 11 S 50 0,0
13.01.2018 13:00:00 -3,8 -4,5 15 8 19 10 S 50 0,0
13.01.2018 12:00:00 -4,6 -5,3 2 1 10 5 NNW 0,7 0,0
13.01.2018 11:00:00 -5,2 -6,0 3 2 8 5 N 2,5 0,0
13.01.2018 10:00:00 -5,7 -6,5 6 4 8 5 NNW 6 0,0
13.01.2018 09:00:00 -6,0 -6,8 6 4 10 5 NNW 0,8 0,0
13.01.2018 08:00:00 -6,4 -7,2 6 4 10 5 N 0,3 0,0
13.01.2018 07:00:00 -7,3 -8,2 7 4 10 5 N 50 0,0
13.01.2018 06:00:00 -8,3 -9,4 4 2 16 9 NNE 20 0,0
13.01.2018 05:00:00 -9,2 -10,5 5 3 16 9 N 50 0,0
13.01.2018 04:00:00 -7,8 -9,2 11 6 16 8 NNW 21 0,0
13.01.2018 03:00:00 -8,2 -9,5 7 4 13 7 NW 50 0,0
13.01.2018 02:00:00 -6,3 -7,5 9 5 13 7 NW 45 0,0
13.01.2018 01:00:00 -6,8 -8,0 6 4 11 6 NNW 50 0,0
13.01.2018 00:00:00 -7,0 -8,2 7 4 11 6 N 43 0,0
12.01.2018 23:00:00 -6,0 -7,1 5 3 10 5 WNW 16 0,0
12.01.2018 22:00:00 -5,1 -6,5 4 2 16 9 W 25 0,0
12.01.2018 21:00:00 -4,3 -6,1 10 5 16 9 W 27 0,0
12.01.2018 20:00:00 -4,0 -5,8 9 5 19 10 WSW 50 0,0
12.01.2018 19:00:00 -3,7 -5,7 10 5 20 11 WSW 50 0,0
12.01.2018 18:00:00 -3,2 -5,2 16 8 24 13 SW 50 0,0
12.01.2018 17:00:00 -3,4 -5,7 16 9 26 14 WSW 50 0,0
12.01.2018 16:00:00 -2,7 -4,9 20 11 29 16 SW 50 0,0
12.01.2018 15:00:00 -3,1 -5,3 22 12 39 21 SSW 50 0,0
12.01.2018 14:00:00 -3,6 -6,2 27 15 39 21 SSW 50 0,0

tt = temperature
td = dewpoint
ff = wind speed
fx = gusts
dd = wind direction
vv = visibility
rr = precipitation

Next stations